createdAt,value
2023-03-26T00:01:36.771Z,20.01
2023-03-26T00:04:07.354Z,20.01
2023-03-26T00:06:39.440Z,20.01
2023-03-26T00:09:09.731Z,20.00
2023-03-26T00:11:37.386Z,20.00
2023-03-26T00:14:05.807Z,20.00
2023-03-26T00:16:33.948Z,19.98
2023-03-26T00:19:02.557Z,19.99
2023-03-26T00:21:31.260Z,19.99
2023-03-26T00:24:04.550Z,19.99
2023-03-26T00:26:37.762Z,19.98
2023-03-26T00:29:06.780Z,19.98
2023-03-26T00:31:35.092Z,19.99
2023-03-26T00:34:06.090Z,19.98
2023-03-26T00:36:36.029Z,19.98
2023-03-26T00:39:05.677Z,19.97
2023-03-26T00:41:37.127Z,19.97
2023-03-26T00:44:05.142Z,19.97
2023-03-26T00:46:32.715Z,19.97
2023-03-26T00:49:01.912Z,19.97
2023-03-26T00:51:30.008Z,19.97
2023-03-26T00:53:58.137Z,19.96
2023-03-26T00:56:25.539Z,19.96
2023-03-26T00:58:52.805Z,19.95
2023-03-26T01:01:28.946Z,19.95
2023-03-26T01:04:07.468Z,19.96
2023-03-26T01:06:38.964Z,19.95
2023-03-26T01:09:32.991Z,19.94
2023-03-26T01:12:03.409Z,19.95
2023-03-26T01:14:30.887Z,19.95
2023-03-26T01:17:01.502Z,19.94
2023-03-26T01:19:44.821Z,19.94
2023-03-26T01:22:17.091Z,19.94
2023-03-26T01:24:46.213Z,19.95
2023-03-26T01:27:39.018Z,19.95
2023-03-26T01:30:43.322Z,19.93
2023-03-26T01:33:21.070Z,19.93
2023-03-26T01:35:57.249Z,19.94
2023-03-26T01:38:30.675Z,19.94
2023-03-26T01:41:00.799Z,19.92
2023-03-26T01:43:43.902Z,19.92
2023-03-26T01:46:12.956Z,19.92
2023-03-26T01:48:43.152Z,19.94
2023-03-26T01:51:11.973Z,19.93
2023-03-26T01:53:47.102Z,19.91
2023-03-26T01:56:45.960Z,19.93
2023-03-26T01:59:37.533Z,19.92
2023-03-26T02:02:21.908Z,19.93
2023-03-26T02:04:55.045Z,19.93
2023-03-26T02:07:41.852Z,19.92
2023-03-26T02:10:16.325Z,19.93
2023-03-26T02:12:45.780Z,19.93
2023-03-26T02:15:13.350Z,19.92
2023-03-26T02:17:40.857Z,19.92
2023-03-26T02:20:11.083Z,19.91
2023-03-26T02:22:41.442Z,19.90
2023-03-26T02:25:13.423Z,19.90
2023-03-26T02:27:41.828Z,19.90
2023-03-26T02:30:29.764Z,19.90
2023-03-26T02:33:00.157Z,19.90
2023-03-26T02:35:35.266Z,19.90
2023-03-26T02:38:03.693Z,19.90
2023-03-26T02:40:31.022Z,19.89
2023-03-26T02:42:58.896Z,19.88
2023-03-26T02:45:28.653Z,19.87
2023-03-26T02:48:01.585Z,19.88
2023-03-26T02:50:50.144Z,19.88
2023-03-26T02:53:37.547Z,19.88
2023-03-26T02:56:28.623Z,19.87
2023-03-26T02:59:16.218Z,19.87
2023-03-26T03:01:45.816Z,19.87
2023-03-26T03:04:15.738Z,19.87
2023-03-26T03:06:44.650Z,19.87
2023-03-26T03:09:12.604Z,19.86
2023-03-26T03:11:40.901Z,19.85
2023-03-26T03:14:08.796Z,19.86
2023-03-26T03:16:36.590Z,19.86
2023-03-26T03:19:07.327Z,19.85
2023-03-26T03:21:39.245Z,19.85
2023-03-26T03:24:08.615Z,19.85
2023-03-26T03:26:47.798Z,19.86
2023-03-26T03:29:36.011Z,19.84
2023-03-26T03:32:23.706Z,19.84
2023-03-26T03:34:54.076Z,19.84
2023-03-26T03:37:21.410Z,19.84
2023-03-26T03:39:53.113Z,19.84
2023-03-26T03:42:22.662Z,19.84
2023-03-26T03:44:53.004Z,19.83
2023-03-26T03:47:42.760Z,19.84
2023-03-26T03:50:10.759Z,19.82
2023-03-26T03:52:44.579Z,19.83
2023-03-26T03:55:13.996Z,19.81
2023-03-26T03:57:49.160Z,19.82
2023-03-26T04:00:20.276Z,19.82
2023-03-26T04:02:59.414Z,19.82
2023-03-26T04:05:29.125Z,19.83
2023-03-26T04:07:56.346Z,19.82
2023-03-26T04:10:26.623Z,19.82
2023-03-26T04:13:13.491Z,19.82
2023-03-26T04:15:56.204Z,19.82
2023-03-26T04:18:24.031Z,19.81
2023-03-26T04:20:51.450Z,19.81
2023-03-26T04:23:26.689Z,19.82
2023-03-26T04:26:06.896Z,19.81
2023-03-26T04:29:02.666Z,19.81
2023-03-26T04:31:32.011Z,19.80
2023-03-26T04:34:07.783Z,19.81
2023-03-26T04:36:42.936Z,19.81
2023-03-26T04:39:13.216Z,19.81
2023-03-26T04:41:59.347Z,19.81
2023-03-26T04:44:34.916Z,19.80
2023-03-26T04:47:06.840Z,19.80
2023-03-26T04:49:45.812Z,19.80
2023-03-26T04:52:15.652Z,19.81
2023-03-26T04:54:58.163Z,19.81
2023-03-26T04:57:37.522Z,19.80
2023-03-26T05:00:18.866Z,19.80
2023-03-26T05:02:54.060Z,19.81
2023-03-26T05:05:22.318Z,19.80
2023-03-26T05:07:50.958Z,19.78
2023-03-26T05:10:21.082Z,19.78
2023-03-26T05:12:55.823Z,19.78
2023-03-26T05:15:27.227Z,19.78
2023-03-26T05:17:55.677Z,19.78
2023-03-26T05:20:30.383Z,19.76
2023-03-26T05:22:58.350Z,19.76
2023-03-26T05:25:31.597Z,19.75
2023-03-26T05:28:01.556Z,19.75
2023-03-26T05:30:49.050Z,19.75
2023-03-26T05:33:16.546Z,19.75
2023-03-26T05:36:07.191Z,19.75
2023-03-26T05:38:35.711Z,19.73
2023-03-26T05:41:07.557Z,19.74
2023-03-26T05:43:36.799Z,19.73
2023-03-26T05:46:12.282Z,19.72
2023-03-26T05:48:40.007Z,19.72
2023-03-26T05:51:08.972Z,19.72
2023-03-26T05:53:41.156Z,19.72
2023-03-26T05:56:31.289Z,19.71
2023-03-26T05:59:17.410Z,19.72
2023-03-26T06:02:03.504Z,19.71
2023-03-26T06:04:41.093Z,19.70
2023-03-26T06:07:41.812Z,19.70
2023-03-26T06:10:19.696Z,19.71
2023-03-26T06:12:47.543Z,19.70
2023-03-26T06:15:15.523Z,19.70
2023-03-26T06:17:58.638Z,19.69
2023-03-26T06:20:37.580Z,19.69
2023-03-26T06:23:11.404Z,19.69
2023-03-26T06:25:55.175Z,19.69
2023-03-26T06:28:41.431Z,19.69
2023-03-26T06:31:27.308Z,19.70
2023-03-26T06:34:13.501Z,19.69
2023-03-26T06:36:44.424Z,19.69
2023-03-26T06:39:12.243Z,19.68
2023-03-26T06:41:49.321Z,19.68
2023-03-26T06:44:36.853Z,19.68
2023-03-26T06:47:33.264Z,19.68
2023-03-26T06:50:12.954Z,19.68
2023-03-26T06:52:58.471Z,19.68
2023-03-26T06:55:41.804Z,19.67
2023-03-26T06:58:27.451Z,19.69
2023-03-26T07:01:13.530Z,19.69
2023-03-26T07:03:59.858Z,19.68
2023-03-26T07:06:53.812Z,19.69
2023-03-26T07:09:39.440Z,19.70
2023-03-26T07:12:39.041Z,19.70
2023-03-26T07:15:28.427Z,19.70
2023-03-26T07:17:56.363Z,19.69
2023-03-26T07:20:32.128Z,19.69
2023-03-26T07:22:59.824Z,19.70
2023-03-26T07:25:35.970Z,19.69
2023-03-26T07:28:34.332Z,19.70
2023-03-26T07:31:36.199Z,19.70
2023-03-26T07:34:46.514Z,19.69
2023-03-26T07:37:54.786Z,19.70
2023-03-26T07:40:53.442Z,19.71
2023-03-26T07:44:06.010Z,19.72
2023-03-26T07:46:49.235Z,19.71
2023-03-26T07:49:35.385Z,19.71
2023-03-26T07:52:10.844Z,19.72
2023-03-26T07:55:17.636Z,19.72
2023-03-26T07:58:30.255Z,19.73
2023-03-26T08:01:25.111Z,19.73
2023-03-26T08:04:26.301Z,19.73
2023-03-26T08:07:47.592Z,19.73
2023-03-26T08:10:35.429Z,19.74
2023-03-26T08:13:31.118Z,19.74
2023-03-26T08:15:59.103Z,19.74
2023-03-26T08:18:46.383Z,19.75
2023-03-26T08:21:31.791Z,19.74
2023-03-26T08:24:06.617Z,19.75
2023-03-26T08:27:01.560Z,19.76
2023-03-26T08:29:28.752Z,19.76
2023-03-26T08:31:57.566Z,19.76
2023-03-26T08:34:24.847Z,19.76
2023-03-26T08:36:52.135Z,19.78
2023-03-26T08:39:22.336Z,19.78
2023-03-26T08:42:01.679Z,19.78
2023-03-26T08:45:06.565Z,19.79
2023-03-26T08:48:01.893Z,19.80
2023-03-26T08:50:50.914Z,19.81
2023-03-26T08:54:04.669Z,19.81
2023-03-26T08:56:45.970Z,19.81
2023-03-26T08:59:34.494Z,19.83
2023-03-26T09:02:23.322Z,19.84
2023-03-26T09:05:28.902Z,19.83
2023-03-26T09:08:30.066Z,19.78
2023-03-26T09:11:15.408Z,19.73
2023-03-26T09:14:20.235Z,19.68
2023-03-26T09:17:16.091Z,19.68
2023-03-26T09:20:02.729Z,19.65
2023-03-26T09:23:21.248Z,19.63
2023-03-26T09:26:07.062Z,19.60
2023-03-26T09:28:58.423Z,19.60
2023-03-26T09:31:28.507Z,19.64
2023-03-26T09:34:27.521Z,19.69
2023-03-26T09:37:05.861Z,19.73
2023-03-26T09:39:51.726Z,19.75
2023-03-26T09:42:44.009Z,19.77
2023-03-26T09:45:27.125Z,19.78
2023-03-26T09:48:20.125Z,19.73
2023-03-26T09:51:09.048Z,19.73
2023-03-26T09:53:59.820Z,19.70
2023-03-26T09:56:54.270Z,19.66
2023-03-26T09:59:48.493Z,19.64
2023-03-26T10:02:45.534Z,19.62
2023-03-26T10:05:46.897Z,19.62
2023-03-26T10:08:32.021Z,19.62
2023-03-26T10:11:17.820Z,19.63
2023-03-26T10:13:59.125Z,19.66
2023-03-26T10:16:49.715Z,19.71
2023-03-26T10:19:28.985Z,19.74
2023-03-26T10:22:17.797Z,19.76
2023-03-26T10:24:56.798Z,19.78
2023-03-26T10:27:33.298Z,19.79
2023-03-26T10:30:09.787Z,19.82
2023-03-26T10:32:55.329Z,19.83
2023-03-26T10:35:31.995Z,19.85
2023-03-26T10:38:38.097Z,19.85
2023-03-26T10:41:08.527Z,19.85
2023-03-26T10:43:54.619Z,19.86
2023-03-26T10:46:39.162Z,19.87
2023-03-26T10:49:06.348Z,19.87
2023-03-26T10:51:51.158Z,19.87
2023-03-26T10:54:42.101Z,19.89
2023-03-26T10:57:25.389Z,19.90
2023-03-26T10:59:58.189Z,19.90
2023-03-26T11:02:36.885Z,19.90
2023-03-26T11:05:19.468Z,19.90
2023-03-26T11:08:02.089Z,19.91
2023-03-26T11:10:52.626Z,19.91
2023-03-26T11:13:32.052Z,19.92
2023-03-26T11:16:05.548Z,19.93
2023-03-26T11:18:39.938Z,19.92
2023-03-26T11:21:19.511Z,19.93
2023-03-26T11:24:06.651Z,19.92
2023-03-26T11:26:42.715Z,19.93
2023-03-26T11:29:47.540Z,19.93
2023-03-26T11:32:21.253Z,19.94
2023-03-26T11:34:58.415Z,19.94
2023-03-26T11:37:35.153Z,19.95
2023-03-26T11:40:11.549Z,19.94
2023-03-26T11:42:41.139Z,19.94
2023-03-26T11:45:16.544Z,19.93
2023-03-26T11:47:50.657Z,19.92
2023-03-26T11:50:25.687Z,19.93
2023-03-26T11:53:12.433Z,19.92
2023-03-26T11:55:44.630Z,19.91
2023-03-26T11:58:24.870Z,19.92
2023-03-26T12:00:54.635Z,19.91
2023-03-26T12:03:22.362Z,19.92
2023-03-26T12:05:59.334Z,19.92
2023-03-26T12:08:39.653Z,19.92
2023-03-26T12:11:12.287Z,19.91
2023-03-26T12:13:42.191Z,19.92
2023-03-26T12:16:15.478Z,19.91
2023-03-26T12:18:45.702Z,19.91
2023-03-26T12:21:17.595Z,19.92
2023-03-26T12:23:56.893Z,19.90
2023-03-26T12:26:45.682Z,19.92
2023-03-26T12:29:15.625Z,19.91
2023-03-26T12:31:52.253Z,19.91
2023-03-26T12:34:21.660Z,19.91
2023-03-26T12:36:52.243Z,19.91
2023-03-26T12:40:06.971Z,19.91
2023-03-26T12:44:53.000Z,19.91
2023-03-26T12:47:46.120Z,19.90
2023-03-26T12:48:39.489Z,19.90
2023-03-26T12:51:25.429Z,19.89
2023-03-26T12:53:55.340Z,19.91
2023-03-26T12:56:45.586Z,19.90
2023-03-26T12:59:33.942Z,19.90
2023-03-26T13:02:01.273Z,19.90
2023-03-26T13:05:02.238Z,19.90
2023-03-26T13:07:51.989Z,19.90
2023-03-26T13:10:36.149Z,19.90
2023-03-26T13:13:31.082Z,19.89
2023-03-26T13:16:09.596Z,19.89
2023-03-26T13:18:45.587Z,19.90
2023-03-26T13:21:26.682Z,19.89
2023-03-26T13:24:24.164Z,19.89
2023-03-26T13:27:27.034Z,19.89
2023-03-26T13:30:01.052Z,19.89
2023-03-26T13:32:44.831Z,19.90
2023-03-26T13:35:36.520Z,19.90
2023-03-26T13:38:12.568Z,19.89
2023-03-26T13:40:58.502Z,19.89
2023-03-26T13:43:34.711Z,19.90
2023-03-26T13:46:08.222Z,19.89
2023-03-26T13:48:43.309Z,19.89
2023-03-26T13:51:57.018Z,19.89
2023-03-26T13:54:32.051Z,19.90
2023-03-26T13:56:59.284Z,19.89
2023-03-26T13:59:44.168Z,19.88
2023-03-26T14:02:23.053Z,19.89
2023-03-26T14:04:56.729Z,19.88
2023-03-26T14:07:40.723Z,19.89
2023-03-26T14:10:16.839Z,19.88
2023-03-26T14:12:57.173Z,19.89
2023-03-26T14:15:37.691Z,19.88
2023-03-26T14:18:49.960Z,19.89
2023-03-26T14:21:29.413Z,19.89
2023-03-26T14:23:56.896Z,19.89
2023-03-26T14:26:49.808Z,19.88
2023-03-26T14:29:32.037Z,19.88
2023-03-26T14:32:08.127Z,19.88
2023-03-26T14:34:42.737Z,19.88
2023-03-26T14:37:28.694Z,19.88
2023-03-26T14:40:27.031Z,19.88
2023-03-26T14:43:09.539Z,19.88
2023-03-26T14:45:45.993Z,19.88
2023-03-26T14:48:38.325Z,19.89
2023-03-26T14:51:29.133Z,19.88
2023-03-26T14:54:04.001Z,19.88
2023-03-26T14:56:52.414Z,19.88
2023-03-26T14:59:56.427Z,19.88
2023-03-26T15:02:50.967Z,19.88
2023-03-26T15:05:57.181Z,19.88
2023-03-26T15:09:15.346Z,19.88
2023-03-26T15:12:12.167Z,19.87
2023-03-26T15:15:26.015Z,19.88
2023-03-26T15:18:18.304Z,19.87
2023-03-26T15:20:56.293Z,19.87
2023-03-26T15:23:42.872Z,19.88
2023-03-26T15:26:29.026Z,19.87
2023-03-26T15:29:04.551Z,19.88
2023-03-26T15:32:01.914Z,19.86
2023-03-26T15:35:02.600Z,19.86
2023-03-26T15:37:54.601Z,19.86
2023-03-26T15:40:30.656Z,19.86
2023-03-26T15:43:12.357Z,19.86
2023-03-26T15:45:48.639Z,19.86
2023-03-26T15:48:16.212Z,19.86
2023-03-26T15:51:22.239Z,19.87
2023-03-26T15:54:08.132Z,19.86
2023-03-26T15:57:07.988Z,19.86
2023-03-26T16:00:15.452Z,19.86
2023-03-26T16:03:10.239Z,19.85
2023-03-26T16:06:18.989Z,19.86
2023-03-26T16:09:10.358Z,19.86
2023-03-26T16:11:43.492Z,19.85
2023-03-26T16:14:17.363Z,19.86
2023-03-26T16:16:57.464Z,19.85
2023-03-26T16:19:49.526Z,19.85
2023-03-26T16:22:43.516Z,19.84
2023-03-26T16:25:27.808Z,19.85
2023-03-26T16:28:21.301Z,19.84
2023-03-26T16:31:10.649Z,19.85
2023-03-26T16:34:18.296Z,19.84
2023-03-26T16:36:49.821Z,19.84
2023-03-26T16:39:23.042Z,19.84
2023-03-26T16:42:05.706Z,19.84
2023-03-26T16:44:51.711Z,19.84
2023-03-26T16:47:44.644Z,19.83
2023-03-26T16:50:33.572Z,19.83
2023-03-26T16:53:15.595Z,19.82
2023-03-26T16:55:51.774Z,19.84
2023-03-26T16:58:33.588Z,19.85
2023-03-26T17:01:04.325Z,19.84
2023-03-26T17:03:52.158Z,19.84
2023-03-26T17:06:36.394Z,19.85
2023-03-26T17:09:15.980Z,19.84
2023-03-26T17:11:51.015Z,19.83
2023-03-26T17:14:55.626Z,19.85
2023-03-26T17:17:44.484Z,19.84
2023-03-26T17:20:36.865Z,19.84
2023-03-26T17:23:30.528Z,19.84
2023-03-26T17:26:32.834Z,19.85
2023-03-26T17:29:24.113Z,19.86
2023-03-26T17:32:12.416Z,19.87
2023-03-26T17:34:46.975Z,19.87
2023-03-26T17:37:17.466Z,19.88
2023-03-26T17:39:46.818Z,19.89
2023-03-26T17:42:35.535Z,19.89
2023-03-26T17:45:09.108Z,19.88
2023-03-26T17:48:15.422Z,19.89
2023-03-26T17:50:45.949Z,19.88
2023-03-26T17:53:28.646Z,19.88
2023-03-26T17:56:03.298Z,19.89
2023-03-26T17:58:42.628Z,19.87
2023-03-26T18:01:09.905Z,19.89
2023-03-26T18:03:44.996Z,19.88
2023-03-26T18:06:32.529Z,19.88
2023-03-26T18:09:18.466Z,19.88
2023-03-26T18:12:03.656Z,19.89
2023-03-26T18:15:09.495Z,19.89
2023-03-26T18:17:43.624Z,19.89
2023-03-26T18:20:21.260Z,19.89
2023-03-26T18:22:50.569Z,19.90
2023-03-26T18:25:28.618Z,19.91
2023-03-26T18:27:57.402Z,19.92
2023-03-26T18:30:26.343Z,19.91
2023-03-26T18:33:00.904Z,19.91
2023-03-26T18:35:41.550Z,19.91
2023-03-26T18:38:17.002Z,19.90
2023-03-26T18:40:46.291Z,19.90
2023-03-26T18:43:34.401Z,19.92
2023-03-26T18:46:04.159Z,19.92
2023-03-26T18:48:31.872Z,19.92
2023-03-26T18:51:06.225Z,19.92
2023-03-26T18:53:41.276Z,19.93
2023-03-26T18:56:39.456Z,19.94
2023-03-26T18:59:27.984Z,19.95
2023-03-26T19:01:57.690Z,19.95
2023-03-26T19:04:26.885Z,19.95
2023-03-26T19:06:56.206Z,19.96
2023-03-26T19:09:31.742Z,19.97
2023-03-26T19:12:20.756Z,19.96
2023-03-26T19:14:55.429Z,19.97
2023-03-26T19:17:26.546Z,20.00
2023-03-26T19:19:55.560Z,19.99
2023-03-26T19:22:25.680Z,19.98
2023-03-26T19:24:59.542Z,19.98
2023-03-26T19:27:27.556Z,19.97
2023-03-26T19:29:54.976Z,19.97
2023-03-26T19:32:32.826Z,19.97
2023-03-26T19:35:02.114Z,19.98
2023-03-26T19:37:31.443Z,19.98
2023-03-26T19:40:30.097Z,19.98
2023-03-26T19:42:58.368Z,19.98
2023-03-26T19:45:26.455Z,19.97
2023-03-26T19:48:03.999Z,19.96
2023-03-26T19:50:43.818Z,19.97
2023-03-26T19:53:17.704Z,19.97
2023-03-26T19:55:56.484Z,19.97
2023-03-26T19:58:26.027Z,19.97
2023-03-26T20:00:55.791Z,19.97
2023-03-26T20:03:38.186Z,19.96
2023-03-26T20:06:07.078Z,19.96
2023-03-26T20:08:34.442Z,19.95
2023-03-26T20:11:01.827Z,19.95
2023-03-26T20:13:31.131Z,19.97
2023-03-26T20:16:07.543Z,19.96
2023-03-26T20:18:35.252Z,19.95
2023-03-26T20:21:09.015Z,19.96
2023-03-26T20:23:37.077Z,19.95
2023-03-26T20:26:04.562Z,19.95
2023-03-26T20:28:38.740Z,19.96
2023-03-26T20:31:24.709Z,19.95
2023-03-26T20:33:54.026Z,19.96
2023-03-26T20:36:34.127Z,19.96
2023-03-26T20:39:08.315Z,19.95
2023-03-26T20:41:40.306Z,19.96
2023-03-26T20:44:15.908Z,19.96
2023-03-26T20:46:44.194Z,19.96
2023-03-26T20:49:12.529Z,19.96
2023-03-26T20:51:41.919Z,19.96
2023-03-26T20:54:23.422Z,19.96
2023-03-26T20:56:51.363Z,19.97
2023-03-26T20:59:26.366Z,19.96
2023-03-26T21:01:56.891Z,19.96
2023-03-26T21:04:26.136Z,19.96
2023-03-26T21:07:00.359Z,19.95
2023-03-26T21:09:34.668Z,19.95
2023-03-26T21:12:06.487Z,19.98
2023-03-26T21:14:44.017Z,19.97
2023-03-26T21:17:20.708Z,19.98
2023-03-26T21:19:49.275Z,19.97
2023-03-26T21:22:36.795Z,19.97
2023-03-26T21:25:10.418Z,19.97
2023-03-26T21:27:59.015Z,19.97
2023-03-26T21:30:27.167Z,19.97
2023-03-26T21:32:54.435Z,19.98
2023-03-26T21:35:22.178Z,19.98
2023-03-26T21:37:49.809Z,19.98
2023-03-26T21:40:18.335Z,19.98
2023-03-26T21:42:49.140Z,19.99
2023-03-26T21:45:17.416Z,19.99
2023-03-26T21:47:46.318Z,19.98
2023-03-26T21:50:17.136Z,19.99
2023-03-26T21:52:48.220Z,19.99
2023-03-26T21:55:16.681Z,19.98
2023-03-26T21:57:58.797Z,19.98
2023-03-26T22:00:42.852Z,19.99
2023-03-26T22:03:32.687Z,19.97
2023-03-26T22:06:07.226Z,19.97
2023-03-26T22:08:40.069Z,19.98
2023-03-26T22:11:10.167Z,19.97
2023-03-26T22:13:38.907Z,19.97
2023-03-26T22:16:08.332Z,19.97
2023-03-26T22:18:35.743Z,19.97
2023-03-26T22:21:03.236Z,19.97
2023-03-26T22:23:34.393Z,19.96
2023-03-26T22:26:03.099Z,19.96
2023-03-26T22:28:30.780Z,19.96
2023-03-26T22:30:58.596Z,19.95
2023-03-26T22:33:26.767Z,19.95
2023-03-26T22:35:56.044Z,19.95
2023-03-26T22:38:23.632Z,19.94
2023-03-26T22:40:57.885Z,19.95
2023-03-26T22:43:25.481Z,19.94
2023-03-26T22:45:54.736Z,19.94
2023-03-26T22:48:23.785Z,19.94
2023-03-26T22:51:02.777Z,19.93
2023-03-26T22:53:30.877Z,19.93
2023-03-26T22:55:59.613Z,19.92
2023-03-26T22:58:28.210Z,19.92
2023-03-26T23:01:17.989Z,19.90
2023-03-26T23:03:45.746Z,19.91
2023-03-26T23:06:13.861Z,19.90
2023-03-26T23:08:41.860Z,19.90
2023-03-26T23:11:12.661Z,19.89
2023-03-26T23:13:40.810Z,19.89
2023-03-26T23:16:10.200Z,19.89
2023-03-26T23:18:38.702Z,19.89
2023-03-26T23:21:12.144Z,19.88
2023-03-26T23:23:39.722Z,19.88
2023-03-26T23:26:07.392Z,19.87
2023-03-26T23:28:35.042Z,19.87
2023-03-26T23:31:04.915Z,19.87
2023-03-26T23:33:35.529Z,19.87
2023-03-26T23:36:09.119Z,19.86
2023-03-26T23:38:43.442Z,19.87
2023-03-26T23:41:14.972Z,19.85
2023-03-26T23:43:54.610Z,19.86
2023-03-26T23:46:25.655Z,19.85
2023-03-26T23:48:53.253Z,19.85
2023-03-26T23:51:21.621Z,19.85
2023-03-26T23:53:49.768Z,19.84
2023-03-26T23:56:17.656Z,19.84
2023-03-26T23:58:44.942Z,19.84
